sensor_id;sensor_type;location;lat;lon;timestamp;P1;durP1;ratioP1;P2;durP2;ratioP2
69625;SDS011;56847;51.984;5.088;2024-01-06T00:00:33;17.58;;;11.25;;
69625;SDS011;56847;51.984;5.088;2024-01-06T00:03:00;14.45;;;10.38;;
69625;SDS011;56847;51.984;5.088;2024-01-06T00:05:27;18.40;;;10.90;;
69625;SDS011;56847;51.984;5.088;2024-01-06T00:07:54;15.05;;;10.48;;
69625;SDS011;56847;51.984;5.088;2024-01-06T00:10:21;17.03;;;10.60;;
69625;SDS011;56847;51.984;5.088;2024-01-06T00:12:48;14.73;;;10.05;;
69625;SDS011;56847;51.984;5.088;2024-01-06T00:15:15;15.85;;;10.07;;
69625;SDS011;56847;51.984;5.088;2024-01-06T00:17:42;12.57;;;10.23;;
69625;SDS011;56847;51.984;5.088;2024-01-06T00:20:09;12.07;;;9.55;;
69625;SDS011;56847;51.984;5.088;2024-01-06T00:22:36;13.70;;;9.60;;
69625;SDS011;56847;51.984;5.088;2024-01-06T00:25:03;13.57;;;9.40;;
69625;SDS011;56847;51.984;5.088;2024-01-06T00:27:31;16.55;;;11.43;;
69625;SDS011;56847;51.984;5.088;2024-01-06T00:29:58;17.77;;;10.25;;
69625;SDS011;56847;51.984;5.088;2024-01-06T00:32:24;16.63;;;10.15;;
69625;SDS011;56847;51.984;5.088;2024-01-06T00:34:51;13.97;;;10.10;;
69625;SDS011;56847;51.984;5.088;2024-01-06T00:37:18;14.98;;;9.10;;
69625;SDS011;56847;51.984;5.088;2024-01-06T00:39:45;16.50;;;10.32;;
69625;SDS011;56847;51.984;5.088;2024-01-06T00:42:12;16.85;;;10.25;;
69625;SDS011;56847;51.984;5.088;2024-01-06T00:44:39;13.93;;;9.73;;
69625;SDS011;56847;51.984;5.088;2024-01-06T00:47:06;10.33;;;7.33;;
69625;SDS011;56847;51.984;5.088;2024-01-06T00:49:35;13.90;;;9.45;;
69625;SDS011;56847;51.984;5.088;2024-01-06T00:52:02;14.00;;;9.07;;
69625;SDS011;56847;51.984;5.088;2024-01-06T00:54:30;13.10;;;9.13;;
69625;SDS011;56847;51.984;5.088;2024-01-06T00:56:57;13.10;;;9.00;;
69625;SDS011;56847;51.984;5.088;2024-01-06T00:59:24;13.73;;;7.50;;
69625;SDS011;56847;51.984;5.088;2024-01-06T01:01:51;7.20;;;6.03;;
69625;SDS011;56847;51.984;5.088;2024-01-06T01:04:18;9.77;;;6.10;;
69625;SDS011;56847;51.984;5.088;2024-01-06T01:06:46;6.55;;;5.60;;
69625;SDS011;56847;51.984;5.088;2024-01-06T01:09:13;9.10;;;5.88;;
69625;SDS011;56847;51.984;5.088;2024-01-06T01:11:41;11.83;;;6.40;;
69625;SDS011;56847;51.984;5.088;2024-01-06T01:14:08;8.45;;;5.68;;
69625;SDS011;56847;51.984;5.088;2024-01-06T01:16:38;8.77;;;6.20;;
69625;SDS011;56847;51.984;5.088;2024-01-06T01:19:04;7.72;;;5.93;;
69625;SDS011;56847;51.984;5.088;2024-01-06T01:21:31;7.90;;;6.32;;
69625;SDS011;56847;51.984;5.088;2024-01-06T01:23:58;8.00;;;6.30;;
69625;SDS011;56847;51.984;5.088;2024-01-06T01:26:27;7.40;;;6.25;;
69625;SDS011;56847;51.984;5.088;2024-01-06T01:28:54;9.38;;;6.57;;
69625;SDS011;56847;51.984;5.088;2024-01-06T01:31:21;8.70;;;6.38;;
69625;SDS011;56847;51.984;5.088;2024-01-06T01:33:49;7.30;;;4.85;;
69625;SDS011;56847;51.984;5.088;2024-01-06T01:36:16;5.23;;;4.30;;
69625;SDS011;56847;51.984;5.088;2024-01-06T01:38:44;5.55;;;4.20;;
69625;SDS011;56847;51.984;5.088;2024-01-06T01:41:11;5.47;;;4.97;;
69625;SDS011;56847;51.984;5.088;2024-01-06T01:43:38;5.30;;;4.80;;
69625;SDS011;56847;51.984;5.088;2024-01-06T01:46:05;5.75;;;4.95;;
69625;SDS011;56847;51.984;5.088;2024-01-06T01:48:32;6.33;;;5.43;;
69625;SDS011;56847;51.984;5.088;2024-01-06T01:51:01;7.15;;;5.30;;
69625;SDS011;56847;51.984;5.088;2024-01-06T01:53:28;7.30;;;5.93;;
69625;SDS011;56847;51.984;5.088;2024-01-06T01:55:57;8.05;;;6.38;;
69625;SDS011;56847;51.984;5.088;2024-01-06T01:58:24;8.38;;;6.93;;
69625;SDS011;56847;51.984;5.088;2024-01-06T02:00:51;9.03;;;6.80;;
69625;SDS011;56847;51.984;5.088;2024-01-06T02:03:19;9.77;;;7.22;;
69625;SDS011;56847;51.984;5.088;2024-01-06T02:05:48;10.23;;;7.43;;
69625;SDS011;56847;51.984;5.088;2024-01-06T02:08:15;9.85;;;6.75;;
69625;SDS011;56847;51.984;5.088;2024-01-06T02:10:41;9.90;;;7.05;;
69625;SDS011;56847;51.984;5.088;2024-01-06T02:13:11;7.70;;;5.83;;
69625;SDS011;56847;51.984;5.088;2024-01-06T02:15:39;9.98;;;6.35;;
69625;SDS011;56847;51.984;5.088;2024-01-06T02:18:06;8.35;;;5.63;;
69625;SDS011;56847;51.984;5.088;2024-01-06T02:20:34;10.20;;;6.25;;
69625;SDS011;56847;51.984;5.088;2024-01-06T02:23:01;7.85;;;5.30;;
69625;SDS011;56847;51.984;5.088;2024-01-06T02:25:28;7.13;;;5.80;;
69625;SDS011;56847;51.984;5.088;2024-01-06T02:27:55;12.20;;;6.50;;
69625;SDS011;56847;51.984;5.088;2024-01-06T02:30:22;10.95;;;6.80;;
69625;SDS011;56847;51.984;5.088;2024-01-06T02:32:49;6.65;;;6.05;;
69625;SDS011;56847;51.984;5.088;2024-01-06T02:35:16;8.77;;;6.88;;
69625;SDS011;56847;51.984;5.088;2024-01-06T02:37:44;9.20;;;7.37;;
69625;SDS011;56847;51.984;5.088;2024-01-06T02:40:11;11.50;;;7.20;;
69625;SDS011;56847;51.984;5.088;2024-01-06T02:42:38;9.45;;;6.50;;
69625;SDS011;56847;51.984;5.088;2024-01-06T02:45:08;9.90;;;6.95;;
69625;SDS011;56847;51.984;5.088;2024-01-06T02:47:36;13.95;;;6.90;;
69625;SDS011;56847;51.984;5.088;2024-01-06T02:50:03;7.50;;;5.43;;
69625;SDS011;56847;51.984;5.088;2024-01-06T02:52:31;7.25;;;5.70;;
69625;SDS011;56847;51.984;5.088;2024-01-06T02:54:58;6.35;;;5.18;;
69625;SDS011;56847;51.984;5.088;2024-01-06T02:57:25;8.75;;;5.40;;
69625;SDS011;56847;51.984;5.088;2024-01-06T02:59:54;9.82;;;5.78;;
69625;SDS011;56847;51.984;5.088;2024-01-06T03:02:20;8.47;;;6.30;;
69625;SDS011;56847;51.984;5.088;2024-01-06T03:04:47;6.50;;;5.35;;
69625;SDS011;56847;51.984;5.088;2024-01-06T03:07:14;8.43;;;5.85;;
69625;SDS011;56847;51.984;5.088;2024-01-06T03:09:41;5.55;;;5.05;;
69625;SDS011;56847;51.984;5.088;2024-01-06T03:12:08;6.28;;;5.50;;
69625;SDS011;56847;51.984;5.088;2024-01-06T03:14:35;7.20;;;4.97;;
69625;SDS011;56847;51.984;5.088;2024-01-06T03:17:03;4.95;;;4.45;;
69625;SDS011;56847;51.984;5.088;2024-01-06T03:19:30;5.07;;;4.68;;
69625;SDS011;56847;51.984;5.088;2024-01-06T03:21:57;5.18;;;4.00;;
69625;SDS011;56847;51.984;5.088;2024-01-06T03:24:25;7.57;;;5.15;;
69625;SDS011;56847;51.984;5.088;2024-01-06T03:26:53;5.80;;;4.73;;
69625;SDS011;56847;51.984;5.088;2024-01-06T03:29:20;6.22;;;4.55;;
69625;SDS011;56847;51.984;5.088;2024-01-06T03:31:47;8.43;;;5.60;;
69625;SDS011;56847;51.984;5.088;2024-01-06T03:34:14;10.80;;;5.10;;
69625;SDS011;56847;51.984;5.088;2024-01-06T03:36:41;7.35;;;5.18;;
69625;SDS011;56847;51.984;5.088;2024-01-06T03:39:11;5.90;;;5.00;;
69625;SDS011;56847;51.984;5.088;2024-01-06T03:41:40;9.70;;;5.22;;
69625;SDS011;56847;51.984;5.088;2024-01-06T03:44:07;6.82;;;5.40;;
69625;SDS011;56847;51.984;5.088;2024-01-06T03:46:34;9.35;;;5.43;;
69625;SDS011;56847;51.984;5.088;2024-01-06T03:49:01;8.70;;;5.97;;
69625;SDS011;56847;51.984;5.088;2024-01-06T03:51:28;6.87;;;5.40;;
69625;SDS011;56847;51.984;5.088;2024-01-06T03:53:56;8.05;;;5.47;;
69625;SDS011;56847;51.984;5.088;2024-01-06T03:56:22;6.40;;;5.72;;
69625;SDS011;56847;51.984;5.088;2024-01-06T03:58:49;7.05;;;5.28;;
69625;SDS011;56847;51.984;5.088;2024-01-06T04:01:16;9.38;;;6.30;;
69625;SDS011;56847;51.984;5.088;2024-01-06T04:03:44;6.03;;;5.40;;
69625;SDS011;56847;51.984;5.088;2024-01-06T04:06:11;6.22;;;4.13;;
69625;SDS011;56847;51.984;5.088;2024-01-06T04:08:41;4.45;;;3.47;;
69625;SDS011;56847;51.984;5.088;2024-01-06T04:11:08;5.20;;;4.25;;
69625;SDS011;56847;51.984;5.088;2024-01-06T04:13:35;6.00;;;5.32;;
69625;SDS011;56847;51.984;5.088;2024-01-06T04:16:02;5.77;;;5.13;;
69625;SDS011;56847;51.984;5.088;2024-01-06T04:18:29;8.73;;;5.15;;
69625;SDS011;56847;51.984;5.088;2024-01-06T04:20:56;7.22;;;5.68;;
69625;SDS011;56847;51.984;5.088;2024-01-06T04:23:23;8.02;;;5.90;;
69625;SDS011;56847;51.984;5.088;2024-01-06T04:25:52;7.05;;;5.93;;
69625;SDS011;56847;51.984;5.088;2024-01-06T04:28:19;11.63;;;6.43;;
69625;SDS011;56847;51.984;5.088;2024-01-06T04:30:45;9.70;;;6.13;;
69625;SDS011;56847;51.984;5.088;2024-01-06T04:33:13;10.02;;;6.00;;
69625;SDS011;56847;51.984;5.088;2024-01-06T04:35:40;7.93;;;6.53;;
69625;SDS011;56847;51.984;5.088;2024-01-06T04:38:07;10.73;;;7.22;;
69625;SDS011;56847;51.984;5.088;2024-01-06T04:40:34;10.27;;;6.53;;
69625;SDS011;56847;51.984;5.088;2024-01-06T04:43:00;9.45;;;6.25;;
69625;SDS011;56847;51.984;5.088;2024-01-06T04:45:27;11.38;;;7.13;;
69625;SDS011;56847;51.984;5.088;2024-01-06T04:47:54;16.05;;;6.47;;
69625;SDS011;56847;51.984;5.088;2024-01-06T04:50:21;10.13;;;6.90;;
69625;SDS011;56847;51.984;5.088;2024-01-06T04:52:48;10.30;;;6.43;;
69625;SDS011;56847;51.984;5.088;2024-01-06T04:55:15;10.45;;;6.88;;
69625;SDS011;56847;51.984;5.088;2024-01-06T04:57:42;11.25;;;6.95;;
69625;SDS011;56847;51.984;5.088;2024-01-06T05:00:09;9.80;;;5.97;;
69625;SDS011;56847;51.984;5.088;2024-01-06T05:02:37;13.80;;;6.25;;
69625;SDS011;56847;51.984;5.088;2024-01-06T05:05:04;10.60;;;6.13;;
69625;SDS011;56847;51.984;5.088;2024-01-06T05:07:31;9.68;;;6.25;;
69625;SDS011;56847;51.984;5.088;2024-01-06T05:09:58;7.50;;;6.15;;
69625;SDS011;56847;51.984;5.088;2024-01-06T05:12:25;12.73;;;6.57;;
69625;SDS011;56847;51.984;5.088;2024-01-06T05:14:51;10.18;;;6.30;;
69625;SDS011;56847;51.984;5.088;2024-01-06T05:17:18;11.00;;;6.00;;
69625;SDS011;56847;51.984;5.088;2024-01-06T05:19:45;5.68;;;5.00;;
69625;SDS011;56847;51.984;5.088;2024-01-06T05:22:12;6.47;;;5.35;;
69625;SDS011;56847;51.984;5.088;2024-01-06T05:24:39;8.02;;;5.13;;
69625;SDS011;56847;51.984;5.088;2024-01-06T05:27:06;10.77;;;5.93;;
69625;SDS011;56847;51.984;5.088;2024-01-06T05:29:37;7.43;;;5.30;;
69625;SDS011;56847;51.984;5.088;2024-01-06T05:32:04;9.65;;;5.82;;
69625;SDS011;56847;51.984;5.088;2024-01-06T05:34:31;8.00;;;5.35;;
69625;SDS011;56847;51.984;5.088;2024-01-06T05:36:58;9.73;;;5.05;;
69625;SDS011;56847;51.984;5.088;2024-01-06T05:39:25;13.02;;;4.90;;
69625;SDS011;56847;51.984;5.088;2024-01-06T05:41:52;7.17;;;4.93;;
69625;SDS011;56847;51.984;5.088;2024-01-06T05:44:19;5.68;;;4.50;;
69625;SDS011;56847;51.984;5.088;2024-01-06T05:46:45;7.40;;;4.90;;
69625;SDS011;56847;51.984;5.088;2024-01-06T05:49:13;6.43;;;5.13;;
69625;SDS011;56847;51.984;5.088;2024-01-06T05:51:44;6.30;;;4.88;;
69625;SDS011;56847;51.984;5.088;2024-01-06T05:54:11;6.13;;;4.37;;
69625;SDS011;56847;51.984;5.088;2024-01-06T05:56:39;6.20;;;4.40;;
69625;SDS011;56847;51.984;5.088;2024-01-06T05:59:05;10.65;;;4.78;;
69625;SDS011;56847;51.984;5.088;2024-01-06T06:01:32;5.82;;;4.45;;
69625;SDS011;56847;51.984;5.088;2024-01-06T06:03:59;9.10;;;4.38;;
69625;SDS011;56847;51.984;5.088;2024-01-06T06:06:26;7.20;;;4.13;;
69625;SDS011;56847;51.984;5.088;2024-01-06T06:08:53;4.80;;;3.58;;
69625;SDS011;56847;51.984;5.088;2024-01-06T06:11:20;5.82;;;4.10;;
69625;SDS011;56847;51.984;5.088;2024-01-06T06:13:47;5.88;;;3.78;;
69625;SDS011;56847;51.984;5.088;2024-01-06T06:16:15;5.88;;;3.85;;
69625;SDS011;56847;51.984;5.088;2024-01-06T06:18:42;6.17;;;4.33;;
69625;SDS011;56847;51.984;5.088;2024-01-06T06:21:09;9.75;;;4.95;;
69625;SDS011;56847;51.984;5.088;2024-01-06T06:23:36;8.75;;;5.15;;
69625;SDS011;56847;51.984;5.088;2024-01-06T06:26:06;7.47;;;5.18;;
69625;SDS011;56847;51.984;5.088;2024-01-06T06:28:34;9.00;;;5.50;;
69625;SDS011;56847;51.984;5.088;2024-01-06T06:31:01;8.43;;;5.07;;
69625;SDS011;56847;51.984;5.088;2024-01-06T06:33:29;5.82;;;4.40;;
69625;SDS011;56847;51.984;5.088;2024-01-06T06:35:57;7.22;;;5.65;;
69625;SDS011;56847;51.984;5.088;2024-01-06T06:38:25;8.68;;;6.10;;
69625;SDS011;56847;51.984;5.088;2024-01-06T06:40:56;8.82;;;5.22;;
69625;SDS011;56847;51.984;5.088;2024-01-06T06:43:23;8.00;;;5.90;;
69625;SDS011;56847;51.984;5.088;2024-01-06T06:45:50;10.32;;;6.30;;
69625;SDS011;56847;51.984;5.088;2024-01-06T06:48:17;11.48;;;6.53;;
69625;SDS011;56847;51.984;5.088;2024-01-06T06:50:44;7.53;;;5.30;;
69625;SDS011;56847;51.984;5.088;2024-01-06T06:53:11;8.82;;;6.22;;
69625;SDS011;56847;51.984;5.088;2024-01-06T06:55:39;5.43;;;4.33;;
69625;SDS011;56847;51.984;5.088;2024-01-06T06:58:07;7.40;;;4.38;;
69625;SDS011;56847;51.984;5.088;2024-01-06T07:00:34;8.60;;;5.63;;
69625;SDS011;56847;51.984;5.088;2024-01-06T07:03:02;8.68;;;5.28;;
69625;SDS011;56847;51.984;5.088;2024-01-06T07:05:29;10.77;;;6.40;;
69625;SDS011;56847;51.984;5.088;2024-01-06T07:07:56;5.63;;;5.13;;
69625;SDS011;56847;51.984;5.088;2024-01-06T07:10:26;5.53;;;4.60;;
69625;SDS011;56847;51.984;5.088;2024-01-06T07:12:53;6.95;;;5.57;;
69625;SDS011;56847;51.984;5.088;2024-01-06T07:15:22;8.50;;;5.10;;
69625;SDS011;56847;51.984;5.088;2024-01-06T07:17:49;6.40;;;5.43;;
69625;SDS011;56847;51.984;5.088;2024-01-06T07:20:17;8.00;;;6.10;;
69625;SDS011;56847;51.984;5.088;2024-01-06T07:22:44;6.35;;;4.68;;
69625;SDS011;56847;51.984;5.088;2024-01-06T07:25:11;5.85;;;5.20;;
69625;SDS011;56847;51.984;5.088;2024-01-06T07:27:38;7.18;;;4.72;;
69625;SDS011;56847;51.984;5.088;2024-01-06T07:30:05;6.75;;;4.53;;
69625;SDS011;56847;51.984;5.088;2024-01-06T07:32:34;6.47;;;4.37;;
69625;SDS011;56847;51.984;5.088;2024-01-06T07:35:01;5.30;;;4.55;;
69625;SDS011;56847;51.984;5.088;2024-01-06T07:37:33;6.43;;;5.18;;
69625;SDS011;56847;51.984;5.088;2024-01-06T07:40:00;8.98;;;5.00;;
69625;SDS011;56847;51.984;5.088;2024-01-06T07:42:27;7.30;;;4.70;;
69625;SDS011;56847;51.984;5.088;2024-01-06T07:44:54;7.07;;;4.70;;
69625;SDS011;56847;51.984;5.088;2024-01-06T07:47:24;9.23;;;5.90;;
69625;SDS011;56847;51.984;5.088;2024-01-06T07:49:51;10.98;;;6.18;;
69625;SDS011;56847;51.984;5.088;2024-01-06T07:52:19;9.13;;;5.38;;
69625;SDS011;56847;51.984;5.088;2024-01-06T07:54:47;11.93;;;5.97;;
69625;SDS011;56847;51.984;5.088;2024-01-06T07:57:14;9.30;;;5.57;;
69625;SDS011;56847;51.984;5.088;2024-01-06T07:59:41;8.35;;;6.07;;
69625;SDS011;56847;51.984;5.088;2024-01-06T08:02:08;8.10;;;6.78;;
69625;SDS011;56847;51.984;5.088;2024-01-06T08:04:36;12.90;;;6.70;;
69625;SDS011;56847;51.984;5.088;2024-01-06T08:07:03;9.18;;;6.90;;
69625;SDS011;56847;51.984;5.088;2024-01-06T08:09:30;10.53;;;6.87;;
69625;SDS011;56847;51.984;5.088;2024-01-06T08:11:57;9.40;;;6.70;;
69625;SDS011;56847;51.984;5.088;2024-01-06T08:14:29;9.80;;;6.75;;
69625;SDS011;56847;51.984;5.088;2024-01-06T08:16:56;10.75;;;7.50;;
69625;SDS011;56847;51.984;5.088;2024-01-06T08:19:25;14.63;;;6.22;;
69625;SDS011;56847;51.984;5.088;2024-01-06T08:22:00;7.53;;;6.47;;
69625;SDS011;56847;51.984;5.088;2024-01-06T08:24:27;10.02;;;7.10;;
69625;SDS011;56847;51.984;5.088;2024-01-06T08:26:55;8.82;;;6.50;;
69625;SDS011;56847;51.984;5.088;2024-01-06T08:29:22;10.20;;;5.63;;
69625;SDS011;56847;51.984;5.088;2024-01-06T08:31:49;10.75;;;6.70;;
69625;SDS011;56847;51.984;5.088;2024-01-06T08:34:18;13.80;;;6.83;;
69625;SDS011;56847;51.984;5.088;2024-01-06T08:36:46;9.45;;;6.75;;
69625;SDS011;56847;51.984;5.088;2024-01-06T08:39:12;7.75;;;5.78;;
69625;SDS011;56847;51.984;5.088;2024-01-06T08:41:40;10.60;;;6.35;;
69625;SDS011;56847;51.984;5.088;2024-01-06T08:44:07;12.73;;;6.57;;
69625;SDS011;56847;51.984;5.088;2024-01-06T08:46:36;7.67;;;5.57;;
69625;SDS011;56847;51.984;5.088;2024-01-06T08:49:03;11.10;;;5.45;;
69625;SDS011;56847;51.984;5.088;2024-01-06T08:51:30;11.48;;;6.68;;
69625;SDS011;56847;51.984;5.088;2024-01-06T08:53:58;7.35;;;5.50;;
69625;SDS011;56847;51.984;5.088;2024-01-06T08:56:28;8.15;;;6.60;;
69625;SDS011;56847;51.984;5.088;2024-01-06T08:58:55;6.97;;;5.70;;
69625;SDS011;56847;51.984;5.088;2024-01-06T09:01:26;10.68;;;6.60;;
69625;SDS011;56847;51.984;5.088;2024-01-06T09:04:02;9.18;;;5.63;;
69625;SDS011;56847;51.984;5.088;2024-01-06T09:06:30;7.45;;;4.88;;
69625;SDS011;56847;51.984;5.088;2024-01-06T09:08:58;8.90;;;6.03;;
69625;SDS011;56847;51.984;5.088;2024-01-06T09:11:24;10.87;;;6.13;;
69625;SDS011;56847;51.984;5.088;2024-01-06T09:13:51;12.35;;;6.40;;
69625;SDS011;56847;51.984;5.088;2024-01-06T09:16:19;10.35;;;6.90;;
69625;SDS011;56847;51.984;5.088;2024-01-06T09:18:46;9.73;;;5.78;;
69625;SDS011;56847;51.984;5.088;2024-01-06T09:21:13;10.73;;;6.93;;
69625;SDS011;56847;51.984;5.088;2024-01-06T09:23:40;7.40;;;6.33;;
69625;SDS011;56847;51.984;5.088;2024-01-06T09:26:07;7.07;;;6.13;;
69625;SDS011;56847;51.984;5.088;2024-01-06T09:28:34;12.13;;;7.00;;
69625;SDS011;56847;51.984;5.088;2024-01-06T09:31:01;8.23;;;5.78;;
69625;SDS011;56847;51.984;5.088;2024-01-06T09:33:31;9.48;;;6.32;;
69625;SDS011;56847;51.984;5.088;2024-01-06T09:36:00;9.27;;;6.23;;
69625;SDS011;56847;51.984;5.088;2024-01-06T09:38:29;9.45;;;6.20;;
69625;SDS011;56847;51.984;5.088;2024-01-06T09:40:56;13.73;;;7.15;;
69625;SDS011;56847;51.984;5.088;2024-01-06T09:43:25;8.10;;;5.88;;
69625;SDS011;56847;51.984;5.088;2024-01-06T09:45:58;9.65;;;6.72;;
69625;SDS011;56847;51.984;5.088;2024-01-06T09:48:33;12.10;;;6.37;;
69625;SDS011;56847;51.984;5.088;2024-01-06T09:51:08;11.98;;;5.95;;
69625;SDS011;56847;51.984;5.088;2024-01-06T09:53:40;13.77;;;5.90;;
69625;SDS011;56847;51.984;5.088;2024-01-06T09:56:17;8.63;;;6.32;;
69625;SDS011;56847;51.984;5.088;2024-01-06T09:58:44;8.43;;;5.80;;
69625;SDS011;56847;51.984;5.088;2024-01-06T10:01:11;8.90;;;5.93;;
69625;SDS011;56847;51.984;5.088;2024-01-06T10:03:41;9.73;;;6.00;;
69625;SDS011;56847;51.984;5.088;2024-01-06T10:06:08;7.80;;;6.22;;
69625;SDS011;56847;51.984;5.088;2024-01-06T10:08:36;8.52;;;6.15;;
69625;SDS011;56847;51.984;5.088;2024-01-06T10:11:06;10.25;;;6.47;;
69625;SDS011;56847;51.984;5.088;2024-01-06T10:13:36;12.87;;;5.13;;
69625;SDS011;56847;51.984;5.088;2024-01-06T10:16:06;11.20;;;6.40;;
69625;SDS011;56847;51.984;5.088;2024-01-06T10:18:33;11.75;;;6.90;;
69625;SDS011;56847;51.984;5.088;2024-01-06T10:21:05;9.10;;;5.20;;
69625;SDS011;56847;51.984;5.088;2024-01-06T10:23:32;11.43;;;5.80;;
69625;SDS011;56847;51.984;5.088;2024-01-06T10:26:00;9.23;;;5.17;;
69625;SDS011;56847;51.984;5.088;2024-01-06T10:28:31;5.97;;;5.05;;
69625;SDS011;56847;51.984;5.088;2024-01-06T10:30:59;7.28;;;6.10;;
69625;SDS011;56847;51.984;5.088;2024-01-06T10:33:26;6.25;;;4.90;;
69625;SDS011;56847;51.984;5.088;2024-01-06T10:35:56;9.38;;;5.90;;
69625;SDS011;56847;51.984;5.088;2024-01-06T10:38:23;11.63;;;5.73;;
69625;SDS011;56847;51.984;5.088;2024-01-06T10:41:02;10.77;;;6.18;;
69625;SDS011;56847;51.984;5.088;2024-01-06T10:43:34;8.32;;;5.82;;
69625;SDS011;56847;51.984;5.088;2024-01-06T10:46:04;8.82;;;4.80;;
69625;SDS011;56847;51.984;5.088;2024-01-06T10:48:35;6.43;;;4.78;;
69625;SDS011;56847;51.984;5.088;2024-01-06T10:51:05;7.13;;;4.27;;
69625;SDS011;56847;51.984;5.088;2024-01-06T10:53:35;4.78;;;4.38;;
69625;SDS011;56847;51.984;5.088;2024-01-06T10:56:03;7.68;;;5.20;;
69625;SDS011;56847;51.984;5.088;2024-01-06T10:58:35;8.05;;;5.15;;
69625;SDS011;56847;51.984;5.088;2024-01-06T11:01:09;8.85;;;5.07;;
69625;SDS011;56847;51.984;5.088;2024-01-06T11:03:38;11.60;;;5.77;;
69625;SDS011;56847;51.984;5.088;2024-01-06T11:06:09;13.27;;;6.25;;
69625;SDS011;56847;51.984;5.088;2024-01-06T11:08:44;11.63;;;7.13;;
69625;SDS011;56847;51.984;5.088;2024-01-06T11:11:34;9.43;;;4.65;;
69625;SDS011;56847;51.984;5.088;2024-01-06T11:14:18;9.35;;;5.25;;
69625;SDS011;56847;51.984;5.088;2024-01-06T11:16:54;6.80;;;4.53;;
69625;SDS011;56847;51.984;5.088;2024-01-06T11:22:23;12.48;;;5.10;;
69625;SDS011;56847;51.984;5.088;2024-01-06T11:24:51;6.65;;;4.90;;
69625;SDS011;56847;51.984;5.088;2024-01-06T11:27:21;7.07;;;5.40;;
69625;SDS011;56847;51.984;5.088;2024-01-06T11:29:53;7.53;;;5.27;;
69625;SDS011;56847;51.984;5.088;2024-01-06T11:34:53;5.80;;;5.20;;
69625;SDS011;56847;51.984;5.088;2024-01-06T11:42:47;9.73;;;5.73;;
69625;SDS011;56847;51.984;5.088;2024-01-06T11:45:23;8.02;;;5.38;;
69625;SDS011;56847;51.984;5.088;2024-01-06T11:47:54;8.48;;;6.30;;
69625;SDS011;56847;51.984;5.088;2024-01-06T11:50:23;9.75;;;6.05;;
69625;SDS011;56847;51.984;5.088;2024-01-06T11:52:51;12.25;;;6.53;;
69625;SDS011;56847;51.984;5.088;2024-01-06T11:55:24;8.70;;;5.43;;
69625;SDS011;56847;51.984;5.088;2024-01-06T11:57:54;7.65;;;5.57;;
69625;SDS011;56847;51.984;5.088;2024-01-06T12:00:22;12.60;;;5.65;;
69625;SDS011;56847;51.984;5.088;2024-01-06T12:02:50;9.00;;;6.20;;
69625;SDS011;56847;51.984;5.088;2024-01-06T12:05:26;7.45;;;5.82;;
69625;SDS011;56847;51.984;5.088;2024-01-06T12:08:06;7.47;;;5.50;;
69625;SDS011;56847;51.984;5.088;2024-01-06T12:10:37;8.60;;;5.63;;
69625;SDS011;56847;51.984;5.088;2024-01-06T12:13:04;11.02;;;6.22;;
69625;SDS011;56847;51.984;5.088;2024-01-06T12:15:42;11.32;;;5.75;;
69625;SDS011;56847;51.984;5.088;2024-01-06T12:18:09;7.40;;;6.65;;
69625;SDS011;56847;51.984;5.088;2024-01-06T12:20:36;8.10;;;5.50;;
69625;SDS011;56847;51.984;5.088;2024-01-06T12:23:03;9.52;;;5.88;;
69625;SDS011;56847;51.984;5.088;2024-01-06T12:25:34;6.88;;;6.07;;
69625;SDS011;56847;51.984;5.088;2024-01-06T12:28:06;16.45;;;6.25;;
69625;SDS011;56847;51.984;5.088;2024-01-06T12:30:38;11.20;;;6.80;;
69625;SDS011;56847;51.984;5.088;2024-01-06T12:33:05;7.30;;;6.20;;
69625;SDS011;56847;51.984;5.088;2024-01-06T12:35:32;11.98;;;6.55;;
69625;SDS011;56847;51.984;5.088;2024-01-06T12:38:01;10.20;;;6.43;;
69625;SDS011;56847;51.984;5.088;2024-01-06T12:40:32;12.18;;;7.35;;
69625;SDS011;56847;51.984;5.088;2024-01-06T12:43:01;13.68;;;7.88;;
69625;SDS011;56847;51.984;5.088;2024-01-06T12:45:28;9.77;;;6.97;;
69625;SDS011;56847;51.984;5.088;2024-01-06T12:47:56;15.23;;;7.28;;
69625;SDS011;56847;51.984;5.088;2024-01-06T12:50:26;9.00;;;6.75;;
69625;SDS011;56847;51.984;5.088;2024-01-06T12:52:53;10.77;;;6.47;;
69625;SDS011;56847;51.984;5.088;2024-01-06T12:55:20;7.40;;;5.40;;
69625;SDS011;56847;51.984;5.088;2024-01-06T12:57:47;10.77;;;5.37;;
69625;SDS011;56847;51.984;5.088;2024-01-06T13:00:14;7.90;;;5.47;;
69625;SDS011;56847;51.984;5.088;2024-01-06T13:02:42;8.15;;;6.00;;
69625;SDS011;56847;51.984;5.088;2024-01-06T13:05:12;8.57;;;5.40;;
69625;SDS011;56847;51.984;5.088;2024-01-06T13:07:40;8.98;;;6.07;;
69625;SDS011;56847;51.984;5.088;2024-01-06T13:10:07;10.43;;;5.37;;
69625;SDS011;56847;51.984;5.088;2024-01-06T13:12:56;8.18;;;5.28;;
69625;SDS011;56847;51.984;5.088;2024-01-06T13:15:38;8.10;;;5.15;;
69625;SDS011;56847;51.984;5.088;2024-01-06T13:19:01;13.35;;;7.15;;
69625;SDS011;56847;51.984;5.088;2024-01-06T13:21:29;11.90;;;7.38;;
69625;SDS011;56847;51.984;5.088;2024-01-06T13:23:56;12.60;;;7.60;;
69625;SDS011;56847;51.984;5.088;2024-01-06T13:26:28;14.32;;;7.30;;
69625;SDS011;56847;51.984;5.088;2024-01-06T13:28:55;13.57;;;7.95;;
69625;SDS011;56847;51.984;5.088;2024-01-06T13:31:22;11.23;;;8.02;;
69625;SDS011;56847;51.984;5.088;2024-01-06T13:33:51;17.08;;;9.18;;
69625;SDS011;56847;51.984;5.088;2024-01-06T13:36:19;9.77;;;7.77;;
69625;SDS011;56847;51.984;5.088;2024-01-06T13:38:47;13.30;;;7.55;;
69625;SDS011;56847;51.984;5.088;2024-01-06T13:41:15;12.90;;;8.43;;
69625;SDS011;56847;51.984;5.088;2024-01-06T13:43:42;14.90;;;8.93;;
69625;SDS011;56847;51.984;5.088;2024-01-06T13:46:12;17.13;;;9.88;;
69625;SDS011;56847;51.984;5.088;2024-01-06T13:48:43;13.30;;;8.63;;
69625;SDS011;56847;51.984;5.088;2024-01-06T13:51:10;14.23;;;7.72;;
69625;SDS011;56847;51.984;5.088;2024-01-06T13:53:38;13.90;;;9.32;;
69625;SDS011;56847;51.984;5.088;2024-01-06T13:56:05;15.80;;;8.57;;
69625;SDS011;56847;51.984;5.088;2024-01-06T13:58:32;13.73;;;8.05;;
69625;SDS011;56847;51.984;5.088;2024-01-06T14:01:02;10.80;;;7.37;;
69625;SDS011;56847;51.984;5.088;2024-01-06T14:03:29;9.55;;;7.50;;
69625;SDS011;56847;51.984;5.088;2024-01-06T14:05:56;13.73;;;8.20;;
69625;SDS011;56847;51.984;5.088;2024-01-06T14:08:23;15.15;;;8.15;;
69625;SDS011;56847;51.984;5.088;2024-01-06T14:10:50;13.30;;;8.20;;
69625;SDS011;56847;51.984;5.088;2024-01-06T14:13:17;12.43;;;6.93;;
69625;SDS011;56847;51.984;5.088;2024-01-06T14:15:44;14.35;;;7.55;;
69625;SDS011;56847;51.984;5.088;2024-01-06T14:18:11;9.95;;;6.75;;
69625;SDS011;56847;51.984;5.088;2024-01-06T14:20:41;12.07;;;6.55;;
69625;SDS011;56847;51.984;5.088;2024-01-06T14:23:09;10.50;;;7.60;;
69625;SDS011;56847;51.984;5.088;2024-01-06T14:25:37;11.93;;;7.20;;
69625;SDS011;56847;51.984;5.088;2024-01-06T14:28:04;13.20;;;8.27;;
69625;SDS011;56847;51.984;5.088;2024-01-06T14:30:32;14.13;;;9.20;;
69625;SDS011;56847;51.984;5.088;2024-01-06T14:32:59;11.40;;;7.95;;
69625;SDS011;56847;51.984;5.088;2024-01-06T14:35:26;18.13;;;9.48;;
69625;SDS011;56847;51.984;5.088;2024-01-06T14:37:53;19.07;;;7.93;;
69625;SDS011;56847;51.984;5.088;2024-01-06T14:40:20;14.32;;;8.98;;
69625;SDS011;56847;51.984;5.088;2024-01-06T14:42:47;15.60;;;9.27;;
69625;SDS011;56847;51.984;5.088;2024-01-06T14:45:15;19.88;;;9.05;;
69625;SDS011;56847;51.984;5.088;2024-01-06T14:47:42;14.32;;;8.80;;
69625;SDS011;56847;51.984;5.088;2024-01-06T14:50:09;12.40;;;8.33;;
69625;SDS011;56847;51.984;5.088;2024-01-06T14:52:37;12.40;;;7.70;;
69625;SDS011;56847;51.984;5.088;2024-01-06T14:55:04;13.30;;;8.60;;
69625;SDS011;56847;51.984;5.088;2024-01-06T14:57:31;12.55;;;7.95;;
69625;SDS011;56847;51.984;5.088;2024-01-06T14:59:58;13.05;;;8.23;;